Time;durP1;ratioP1;P1;durP2;ratioP2;P2;SDS_P1;SDS_P2;PMS_P1;PMS_P2;Temp;Humidity;BMP_temperature;BMP_pressure;BME280_temperature;BME280_humidity;BME280_pressure;Samples;Min_cycle;Max_cycle;Signal;HPM_P1;HPM_P2
2023/06/08 00:00:20;;;;;;;18.27;9.05;;;;;;;12.93;99.30;101817.59;1044736;28;20307;-47
2023/06/08 00:00:53;;;;;;;15.52;8.75;;;;;;;12.98;99.73;101819.66;1044490;28;20303;-45
2023/06/08 00:01:25;;;;;;;18.17;10.63;;;;;;;12.96;99.58;101819.03;1044695;28;20294;-50
2023/06/08 00:01:57;;;;;;;14.27;8.18;;;;;;;13.02;99.54;101820.06;1044737;28;20305;-49
2023/06/08 00:02:29;;;;;;;15.43;8.43;;;;;;;13.00;99.81;101820.25;1044731;28;20291;-47
2023/06/08 00:03:04;;;;;;;13.82;9.20;;;;;;;12.90;99.31;101819.88;1044729;28;20634;-48
2023/06/08 00:03:38;;;;;;;16.27;9.73;;;;;;;12.93;98.92;101817.59;1044317;28;20310;-48
2023/06/08 00:04:12;;;;;;;13.57;8.07;;;;;;;12.88;99.47;101819.25;1044334;28;20299;-52
2023/06/08 00:04:45;;;;;;;20.95;10.23;;;;;;;12.90;99.51;101817.19;1045418;28;20291;-48
2023/06/08 00:05:18;;;;;;;16.05;8.63;;;;;;;12.87;99.81;101822.94;1044866;28;20295;-47
2023/06/08 00:05:49;;;;;;;20.55;8.82;;;;;;;12.91;99.83;101825.00;1044990;28;20635;-56
2023/06/08 00:06:26;;;;;;;19.42;8.68;;;;;;;12.89;99.03;101826.25;1045614;28;20299;-48
2023/06/08 00:06:57;;;;;;;19.85;8.20;;;;;;;12.90;99.81;101823.38;1045486;28;20298;-50
2023/06/08 00:07:29;;;;;;;12.73;8.88;;;;;;;12.92;99.83;101825.84;1045180;28;20394;-49
2023/06/08 00:08:02;;;;;;;21.15;9.35;;;;;;;12.89;99.86;101826.25;1044692;28;20287;-45
2023/06/08 00:08:35;;;;;;;14.75;8.50;;;;;;;12.84;99.93;101820.69;1044599;28;20772;-46
2023/06/08 00:09:07;;;;;;;14.43;8.30;;;;;;;12.88;99.93;101824.59;1044857;28;20335;-49
2023/06/08 00:09:38;;;;;;;20.70;8.80;;;;;;;12.90;100.00;101822.56;1044768;28;20287;-50
2023/06/08 00:10:10;;;;;;;14.57;8.70;;;;;;;12.88;99.83;101819.25;1044470;28;20827;-50
2023/06/08 00:10:43;;;;;;;14.45;8.45;;;;;;;12.80;100.00;101822.13;1045670;28;20297;-56
2023/06/08 00:11:15;;;;;;;20.92;10.85;;;;;;;12.81;99.78;101818.41;1044568;28;20382;-56
2023/06/08 00:11:47;;;;;;;19.83;9.02;;;;;;;12.79;100.00;101820.47;1043642;28;20302;-56
2023/06/08 00:12:18;;;;;;;20.63;9.32;;;;;;;12.77;100.00;101822.53;1044453;28;20996;-56
2023/06/08 00:12:52;;;;;;;15.95;7.53;;;;;;;12.68;100.00;101820.09;1045382;28;20357;-56
2023/06/08 00:13:23;;;;;;;19.73;9.05;;;;;;;12.65;100.00;101820.50;1045077;28;20653;-48
2023/06/08 00:13:55;;;;;;;18.70;9.25;;;;;;;12.60;100.00;101820.31;1044292;28;20303;-46
2023/06/08 00:14:27;;;;;;;20.30;9.70;;;;;;;12.62;100.00;101820.91;1044584;28;20303;-44
2023/06/08 00:14:58;;;;;;;13.05;8.35;;;;;;;12.62;100.00;101812.06;1044391;28;20385;-47
2023/06/08 00:15:34;;;;;;;17.60;9.15;;;;;;;12.56;100.00;101820.88;1044681;28;20299;-49
2023/06/08 00:16:05;;;;;;;18.17;9.13;;;;;;;12.54;100.00;101823.78;1045560;28;20826;-45
2023/06/08 00:16:38;;;;;;;13.82;9.43;;;;;;;12.58;100.00;101811.63;1044683;28;20310;-49
2023/06/08 00:17:10;;;;;;;17.40;8.43;;;;;;;12.54;100.00;101818.41;1044643;28;20295;-50
2023/06/08 00:17:43;;;;;;;16.30;8.57;;;;;;;12.58;100.00;101822.31;1044687;28;20817;-46
2023/06/08 00:18:16;;;;;;;15.32;8.95;;;;;;;12.55;100.00;101814.72;1041234;28;20307;-57
2023/06/08 00:18:49;;;;;;;16.52;9.45;;;;;;;12.58;100.00;101821.50;1045132;28;20303;-48
2023/06/08 00:19:22;;;;;;;23.58;10.27;;;;;;;12.52;100.00;101820.47;1045086;28;20295;-48
2023/06/08 00:19:56;;;;;;;19.77;10.23;;;;;;;12.55;100.00;101814.72;1044199;28;20662;-45
2023/06/08 00:20:28;;;;;;;11.23;8.88;;;;;;;12.52;100.00;101817.81;1044579;28;20287;-48
2023/06/08 00:21:01;;;;;;;19.45;8.25;;;;;;;12.51;100.00;101823.34;1044204;28;20785;-48
2023/06/08 00:21:33;;;;;;;12.73;9.15;;;;;;;12.53;100.00;101816.78;1044408;28;20305;-50
2023/06/08 00:22:07;;;;;;;16.10;9.02;;;;;;;12.54;100.00;101813.09;1044615;28;20755;-49
2023/06/08 00:22:39;;;;;;;26.23;11.52;;;;;;;12.51;100.00;101821.50;1046057;28;20300;-47
2023/06/08 00:23:11;;;;;;;15.52;8.98;;;;;;;12.55;100.00;101821.91;1048921;28;20291;-49
2023/06/08 00:23:42;;;;;;;15.52;9.63;;;;;;;12.57;100.00;101818.00;1048969;28;20305;-46
2023/06/08 00:24:19;;;;;;;19.95;10.25;;;;;;;12.54;100.00;101812.25;1048850;28;20325;-48
2023/06/08 00:24:51;;;;;;;17.50;9.50;;;;;;;12.57;100.00;101819.88;1048939;28;20388;-47
2023/06/08 00:25:23;;;;;;;16.30;9.73;;;;;;;12.53;100.00;101815.97;1048710;28;20294;-50
2023/06/08 00:25:54;;;;;;;17.58;8.85;;;;;;;12.53;100.00;101811.44;1049058;28;20344;-49
2023/06/08 00:26:26;;;;;;;21.67;11.15;;;;;;;12.52;100.00;101815.13;1048808;28;20305;-50
2023/06/08 00:26:57;;;;;;;18.33;8.80;;;;;;;12.55;100.00;101813.91;1048295;28;20311;-49
2023/06/08 00:27:29;;;;;;;19.95;10.63;;;;;;;12.54;100.00;101802.38;1048105;28;20299;-47
2023/06/08 00:28:01;;;;;;;13.60;9.00;;;;;;;12.51;100.00;101810.81;1045399;28;20680;-47
2023/06/08 00:28:32;;;;;;;15.68;10.15;;;;;;;12.53;100.00;101800.75;1043848;28;20291;-47
2023/06/08 00:29:04;;;;;;;15.10;10.82;;;;;;;12.55;100.00;101809.38;1043936;28;20310;-49
2023/06/08 00:29:35;;;;;;;18.33;8.80;;;;;;;12.52;100.00;101804.44;1043979;28;20303;-49
2023/06/08 00:30:08;;;;;;;14.80;9.18;;;;;;;12.50;100.00;101806.50;1044354;28;20448;-47
2023/06/08 00:30:40;;;;;;;14.57;8.57;;;;;;;12.55;100.00;101805.88;1040897;28;20296;-55
2023/06/08 00:31:11;;;;;;;19.05;8.65;;;;;;;12.54;100.00;101801.56;1045329;28;20348;-47
2023/06/08 00:31:43;;;;;;;16.13;9.35;;;;;;;12.56;100.00;101805.69;1044460;28;20291;-46
2023/06/08 00:32:15;;;;;;;27.25;9.93;;;;;;;12.57;100.00;101804.66;1044376;28;20378;-50
2023/06/08 00:32:50;;;;;;;24.55;10.18;;;;;;;12.60;100.00;101812.28;1045290;28;20295;-56
2023/06/08 00:33:21;;;;;;;19.23;9.63;;;;;;;12.61;100.00;101805.09;1045519;28;20299;-48
2023/06/08 00:33:53;;;;;;;19.42;8.63;;;;;;;12.50;100.00;101803.00;1044514;28;20296;-46
2023/06/08 00:34:25;;;;;;;21.38;8.80;;;;;;;12.46;100.00;101805.28;1044373;28;20284;-45
2023/06/08 00:34:58;;;;;;;17.48;9.07;;;;;;;12.50;100.00;101808.34;1044241;28;20361;-50
2023/06/08 00:35:31;;;;;;;12.05;8.75;;;;;;;12.50;100.00;101811.84;1043204;28;20797;-46
2023/06/08 00:36:04;;;;;;;16.98;10.00;;;;;;;12.41;100.00;101807.75;1043945;28;20418;-48
2023/06/08 00:36:37;;;;;;;20.25;8.57;;;;;;;12.47;100.00;101806.09;1039605;28;20316;-49
2023/06/08 00:37:09;;;;;;;18.40;9.65;;;;;;;12.43;100.00;101813.69;1040016;28;20665;-48
2023/06/08 00:37:41;;;;;;;13.43;8.63;;;;;;;12.38;100.00;101808.16;1040543;28;20817;-45
2023/06/08 00:38:13;;;;;;;11.32;7.78;;;;;;;12.37;100.00;101801.16;1043841;28;20305;-45
2023/06/08 00:38:45;;;;;;;15.98;9.30;;;;;;;12.37;100.00;101807.34;1044564;28;20653;-46
2023/06/08 00:39:16;;;;;;;23.33;9.32;;;;;;;12.34;100.00;101812.25;1044294;28;20303;-45
2023/06/08 00:39:48;;;;;;;15.85;10.43;;;;;;;12.33;100.00;101806.09;1043820;28;20303;-46
2023/06/08 00:40:20;;;;;;;14.98;8.68;;;;;;;12.27;100.00;101801.53;1040336;28;20381;-46
2023/06/08 00:40:54;;;;;;;15.07;9.57;;;;;;;12.24;100.00;101801.97;1036191;28;20307;-49
2023/06/08 00:41:26;;;;;;;24.75;9.18;;;;;;;12.26;100.00;101804.44;1032633;28;20392;-46
2023/06/08 00:41:58;;;;;;;18.35;9.18;;;;;;;12.29;100.00;101798.66;1037662;28;20301;-56
2023/06/08 00:42:30;;;;;;;18.80;9.48;;;;;;;12.30;100.00;101802.97;1041002;28;20303;-56
2023/06/08 00:43:02;;;;;;;12.63;8.10;;;;;;;12.34;100.00;101807.75;1040191;28;20395;-56
2023/06/08 00:43:36;;;;;;;24.50;11.77;;;;;;;12.38;100.00;101800.13;1032812;28;20305;-56
2023/06/08 00:44:10;;;;;;;20.50;9.38;;;;;;;12.40;100.00;101802.59;1036114;28;20390;-56
2023/06/08 00:44:41;;;;;;;17.38;8.80;;;;;;;12.42;100.00;101801.38;1038639;28;20300;-55
2023/06/08 00:45:13;;;;;;;13.13;10.45;;;;;;;12.39;100.00;101804.44;1046236;28;20345;-56
2023/06/08 00:45:45;;;;;;;16.60;9.60;;;;;;;12.33;100.00;101805.28;1048247;28;20303;-56
2023/06/08 00:46:19;;;;;;;18.55;11.13;;;;;;;12.32;100.00;101798.25;1049443;28;20295;-48
2023/06/08 00:46:51;;;;;;;19.50;9.25;;;;;;;12.28;100.00;101802.38;1048324;28;20376;-49
2023/06/08 00:47:23;;;;;;;14.57;9.45;;;;;;;12.31;100.00;101799.28;1046435;28;20338;-54
2023/06/08 00:47:55;;;;;;;16.70;9.75;;;;;;;12.34;100.00;101804.25;1044774;28;20295;-56
2023/06/08 00:48:27;;;;;;;21.08;8.93;;;;;;;12.34;100.00;101801.56;1044334;28;20308;-50
2023/06/08 00:48:59;;;;;;;19.10;9.57;;;;;;;12.32;100.00;101798.25;1040662;28;20303;-55
2023/06/08 00:49:32;;;;;;;20.13;9.43;;;;;;;12.33;100.00;101805.28;1040360;28;20681;-56
2023/06/08 00:50:07;;;;;;;17.65;8.60;;;;;;;12.34;100.00;101807.75;1036677;28;20403;-57
2023/06/08 00:50:41;;;;;;;13.43;9.10;;;;;;;12.21;100.00;101801.53;1045772;28;20310;-46
2023/06/08 00:51:13;;;;;;;18.25;8.95;;;;;;;12.26;100.00;101799.09;1048820;28;20424;-56
2023/06/08 00:51:45;;;;;;;14.65;9.55;;;;;;;12.23;100.00;101800.31;1048508;28;20282;-56
2023/06/08 00:52:18;;;;;;;13.57;9.40;;;;;;;12.23;100.00;101799.50;1048331;28;20326;-56
2023/06/08 00:52:49;;;;;;;18.85;10.02;;;;;;;12.28;100.00;101797.03;1048412;28;20795;-56
2023/06/08 00:53:23;;;;;;;16.60;9.98;;;;;;;12.27;100.00;101795.38;1048193;28;20842;-56
2023/06/08 00:53:56;;;;;;;15.30;9.88;;;;;;;12.29;100.00;101790.66;1044232;28;20299;-56
2023/06/08 00:54:30;;;;;;;19.35;9.70;;;;;;;12.27;100.00;101798.06;1039934;28;20316;-56
2023/06/08 00:55:02;;;;;;;21.00;10.00;;;;;;;12.22;100.00;101795.19;1040749;28;20292;-56
2023/06/08 00:55:34;;;;;;;18.30;10.73;;;;;;;12.22;100.00;101795.19;1043840;28;20319;-56
2023/06/08 00:56:07;;;;;;;17.38;9.38;;;;;;;12.23;100.00;101797.66;1040815;28;20343;-45
2023/06/08 00:56:40;;;;;;;12.45;8.32;;;;;;;12.26;100.00;101804.44;1045177;28;20803;-56
2023/06/08 00:57:12;;;;;;;15.60;8.93;;;;;;;12.22;100.00;101797.84;1048280;28;20355;-56
2023/06/08 00:57:47;;;;;;;14.20;9.43;;;;;;;12.14;100.00;101800.72;1044171;28;20295;-56
2023/06/08 00:58:19;;;;;;;15.48;8.82;;;;;;;12.14;100.00;101800.72;1044713;28;20823;-56
2023/06/08 00:58:56;;;;;;;17.23;9.48;;;;;;;12.13;100.00;101799.06;1044637;28;20291;-45
2023/06/08 00:59:31;;;;;;;14.02;8.63;;;;;;;12.19;100.00;101804.41;1045657;28;20299;-46
2023/06/08 01:00:08;;;;;;;22.35;10.60;;;;;;;12.15;100.00;101797.03;1048287;28;20382;-48
2023/06/08 01:00:40;;;;;;;16.83;10.63;;;;;;;12.07;100.00;101806.88;1048510;28;20306;-55
2023/06/08 01:01:17;;;;;;;18.70;9.88;;;;;;;12.00;100.00;101798.00;1049424;28;20299;-47
2023/06/08 01:01:50;;;;;;;22.67;9.43;;;;;;;12.02;100.00;101798.63;1048791;28;20305;-55
2023/06/08 01:02:23;;;;;;;17.25;9.48;;;;;;;11.91;100.00;101801.91;1048624;28;20294;-57
2023/06/08 01:02:58;;;;;;;17.00;9.20;;;;;;;11.96;100.00;101794.09;1048667;28;20305;-52
2023/06/08 01:03:35;;;;;;;18.50;10.32;;;;;;;12.00;100.00;101800.69;1048392;28;20625;-48
2023/06/08 01:04:11;;;;;;;18.45;10.60;;;;;;;11.99;100.00;101796.38;1044892;28;20750;-46
2023/06/08 01:04:43;;;;;;;16.08;9.65;;;;;;;11.98;100.00;101801.91;1045905;28;20318;-56
2023/06/08 01:05:16;;;;;;;21.33;8.80;;;;;;;11.95;100.00;101802.31;1048239;28;20317;-56
2023/06/08 01:05:52;;;;;;;18.88;10.05;;;;;;;11.97;100.00;101806.44;1048319;28;20297;-56
2023/06/08 01:06:24;;;;;;;19.73;9.93;;;;;;;11.99;100.00;101793.69;1048869;28;20379;-45
2023/06/08 01:07:16;;;;;;;16.45;9.88;;;;;;;12.01;100.00;101807.66;1041815;28;20812;-52
2023/06/08 01:08:04;;;;;;;22.95;10.77;;;;;;;11.93;100.00;101801.69;1044410;28;20743;-49
2023/06/08 01:08:42;;;;;;;17.23;9.65;;;;;;;11.89;100.00;101803.13;1045583;28;20357;-47
2023/06/08 01:09:17;;;;;;;15.70;8.52;;;;;;;11.93;100.00;101799.03;1048371;28;20286;-47
2023/06/08 01:09:53;;;;;;;22.25;10.98;;;;;;;11.93;100.00;101799.03;1048330;28;20386;-48
2023/06/08 01:10:32;;;;;;;19.38;9.27;;;;;;;11.88;100.00;101798.81;1048157;28;20309;-46
2023/06/08 01:11:13;;;;;;;19.67;9.77;;;;;;;11.83;100.00;101794.09;1046695;28;20291;-48
2023/06/08 01:12:10;;;;;;;14.15;10.40;;;;;;;11.85;100.00;101796.53;1037348;28;20323;-47
2023/06/08 01:12:53;;;;;;;20.33;10.13;;;;;;;11.78;100.00;101799.19;1036607;28;20395;-49
2023/06/08 01:13:36;;;;;;;18.85;9.75;;;;;;;11.79;100.00;101794.69;1038928;28;20299;-44
2023/06/08 01:14:29;;;;;;;13.50;9.55;;;;;;;11.79;100.00;101806.19;1036842;28;20303;-46
2023/06/08 01:15:03;;;;;;;19.08;9.07;;;;;;;11.81;100.00;101798.78;1040011;28;20296;-46
2023/06/08 01:15:39;;;;;;;21.25;9.93;;;;;;;11.84;100.00;101790.38;1040219;28;20391;-46
2023/06/08 01:16:14;;;;;;;22.67;11.18;;;;;;;11.84;100.00;101790.38;1044202;28;20304;-46
2023/06/08 01:16:51;;;;;;;16.77;11.60;;;;;;;11.83;100.00;101796.75;1040469;28;20741;-48
2023/06/08 01:17:32;;;;;;;17.27;9.68;;;;;;;11.84;100.00;101795.72;1040154;28;20295;-57
2023/06/08 01:18:17;;;;;;;22.13;10.52;;;;;;;11.76;100.00;101793.19;1043807;28;20303;-56
2023/06/08 01:18:51;;;;;;;14.95;9.65;;;;;;;11.73;100.00;101802.41;1040949;28;20054;-46
2023/06/08 01:19:39;;;;;;;27.77;10.52;;;;;;;11.65;100.00;101788.44;1035997;28;20810;-48
2023/06/08 01:20:41;;;;;;;17.80;9.80;;;;;;;11.65;100.00;101799.09;1035906;28;20309;-47
2023/06/08 01:21:25;;;;;;;17.70;9.65;;;;;;;11.70;100.00;101794.81;1042615;28;20292;-55
2023/06/08 01:22:12;;;;;;;17.63;10.20;;;;;;;11.70;100.00;101788.66;1045218;28;20352;-55
2023/06/08 01:22:56;;;;;;;29.05;10.77;;;;;;;11.61;100.00;101796.03;1044126;28;20291;-45
2023/06/08 01:23:37;;;;;;;16.17;10.23;;;;;;;11.59;100.00;101797.25;1041365;28;20288;-50
2023/06/08 01:24:24;;;;;;;16.13;9.88;;;;;;;11.62;100.00;101796.84;1040890;28;20292;-49
2023/06/08 01:24:56;;;;;;;18.05;9.52;;;;;;;11.60;100.00;101802.38;1036450;28;20363;-55
2023/06/08 01:25:30;;;;;;;17.25;10.85;;;;;;;11.59;100.00;101794.56;1039510;28;20377;-56
2023/06/08 01:26:03;;;;;;;16.92;9.93;;;;;;;11.53;100.00;101800.72;1041760;28;20797;-56
2023/06/08 01:26:35;;;;;;;18.42;10.30;;;;;;;11.51;100.00;101794.75;1036324;28;20300;-56
2023/06/08 01:27:09;;;;;;;20.13;9.98;;;;;;;11.49;100.00;101802.94;1039693;28;20303;-56
2023/06/08 01:27:44;;;;;;;15.45;10.35;;;;;;;11.44;100.00;101794.69;1043408;28;20299;-56
2023/06/08 01:28:16;;;;;;;24.38;12.45;;;;;;;11.45;100.00;101802.50;1040621;28;20299;-56
2023/06/08 01:28:49;;;;;;;20.65;10.93;;;;;;;11.43;100.00;101793.88;1043813;28;20851;-55
2023/06/08 01:29:27;;;;;;;21.25;11.85;;;;;;;11.44;100.00;101795.53;1038776;28;20386;-56
2023/06/08 01:29:59;;;;;;;18.10;10.40;;;;;;;11.51;100.00;101800.09;1038601;28;20293;-55
2023/06/08 01:30:31;;;;;;;13.52;9.27;;;;;;;11.49;100.00;101796.78;1044106;28;20298;-56
2023/06/08 01:31:05;;;;;;;24.75;10.35;;;;;;;11.48;100.00;101797.78;1042028;28;20702;-52
2023/06/08 01:31:37;;;;;;;15.68;10.35;;;;;;;11.52;100.00;101796.41;1039949;28;20300;-56
2023/06/08 01:32:10;;;;;;;19.95;10.73;;;;;;;11.57;100.00;101799.28;1035508;28;20312;-56
2023/06/08 01:32:43;;;;;;;17.27;11.13;;;;;;;11.56;100.00;101792.31;1036764;28;20297;-55
2023/06/08 01:33:17;;;;;;;24.05;13.35;;;;;;;11.54;100.00;101799.69;1040973;28;20288;-56
2023/06/08 01:33:50;;;;;;;19.63;11.57;;;;;;;11.45;100.00;101799.00;1043805;28;20299;-55
2023/06/08 01:34:21;;;;;;;21.98;9.57;;;;;;;11.45;100.00;101796.34;1039624;28;20300;-56
2023/06/08 01:34:53;;;;;;;22.08;11.35;;;;;;;11.46;100.00;101804.16;1040139;28;20284;-55
2023/06/08 01:35:25;;;;;;;16.38;10.60;;;;;;;11.50;100.00;101793.09;1039769;28;20832;-55
2023/06/08 01:36:05;;;;;;;18.67;10.65;;;;;;;11.51;100.00;101798.25;1039440;28;20308;-56
2023/06/08 01:36:36;;;;;;;15.07;10.88;;;;;;;11.44;100.00;101795.53;1035431;28;20442;-56
2023/06/08 01:37:39;;;;;;;18.55;9.80;;;;;;;11.41;100.00;101795.09;1031336;28;20672;-56
2023/06/08 01:38:21;;;;;;;19.05;10.75;;;;;;;11.39;100.00;101792.63;1039191;28;20812;-56
2023/06/08 01:39:41;;;;;;;20.35;10.18;;;;;;;11.49;100.00;101792.25;1040586;28;20666;-56
2023/06/08 01:40:20;;;;;;;11.77;9.27;;;;;;;11.35;100.00;101804.72;1037969;28;20380;-55
2023/06/08 01:40:55;;;;;;;21.65;11.30;;;;;;;11.33;100.00;101798.78;1043889;28;20801;-55
2023/06/08 01:41:34;;;;;;;19.05;11.27;;;;;;;11.32;100.00;101798.97;1040100;28;20292;-56
2023/06/08 01:42:06;;;;;;;22.27;11.98;;;;;;;11.37;100.00;101799.19;1040945;28;20345;-55
2023/06/08 01:42:39;;;;;;;22.65;12.30;;;;;;;11.36;100.00;101800.22;1039687;28;20395;-55
2023/06/08 01:43:12;;;;;;;16.10;11.30;;;;;;;11.33;100.00;101792.59;1041588;28;20406;-55
2023/06/08 01:43:44;;;;;;;21.58;11.95;;;;;;;11.34;100.00;101794.25;1045131;28;20291;-48
2023/06/08 01:44:23;;;;;;;20.70;9.90;;;;;;;11.30;100.00;101796.50;1037393;28;20297;-56
2023/06/08 01:45:07;;;;;;;16.08;11.02;;;;;;;11.30;100.00;101798.34;1041421;28;20308;-55
2023/06/08 01:45:44;;;;;;;21.55;12.32;;;;;;;11.32;100.00;101791.78;1039606;28;20327;-56
2023/06/08 01:46:18;;;;;;;26.27;11.70;;;;;;;11.36;100.00;101800.22;1042807;28;20308;-56
2023/06/08 01:46:58;;;;;;;20.02;13.18;;;;;;;11.32;100.00;101797.13;1044135;28;20303;-56
2023/06/08 01:47:38;;;;;;;22.25;10.95;;;;;;;11.35;100.00;101783.38;1043804;28;20803;-55
2023/06/08 01:48:10;;;;;;;25.90;11.27;;;;;;;11.39;100.00;101789.97;1045990;28;20326;-56
2023/06/08 01:48:43;;;;;;;25.52;11.77;;;;;;;11.39;100.00;101789.97;1048158;28;20302;-56
2023/06/08 01:49:15;;;;;;;17.13;11.95;;;;;;;11.48;100.00;101789.78;1044070;28;20404;-56
2023/06/08 01:49:50;;;;;;;14.95;10.82;;;;;;;11.50;100.00;101788.56;1040944;28;20438;-56
2023/06/08 01:50:23;;;;;;;23.10;11.20;;;;;;;11.54;100.00;101789.00;1040018;28;20862;-56
2023/06/08 01:50:55;;;;;;;24.38;11.57;;;;;;;11.50;100.00;101787.75;1041104;28;20288;-56
2023/06/08 01:51:28;;;;;;;16.45;10.68;;;;;;;11.44;100.00;101790.19;1036228;28;20305;-56
2023/06/08 01:52:02;;;;;;;26.70;12.50;;;;;;;11.46;100.00;101788.16;1036397;28;20297;-55
2023/06/08 01:52:34;;;;;;;24.35;13.02;;;;;;;11.48;100.00;101792.47;1035450;28;20305;-55
2023/06/08 01:53:06;;;;;;;18.10;11.95;;;;;;;11.51;100.00;101786.75;1032447;28;20305;-56
2023/06/08 01:53:38;;;;;;;19.75;10.02;;;;;;;11.51;100.00;101784.09;1032117;28;20305;-56
2023/06/08 01:54:09;;;;;;;28.48;11.70;;;;;;;11.53;100.00;101782.03;1036704;28;20663;-56
2023/06/08 01:54:41;;;;;;;17.67;11.95;;;;;;;11.51;100.00;101784.09;1043923;28;20327;-56
2023/06/08 01:55:16;;;;;;;22.30;11.02;;;;;;;11.48;100.00;101787.13;1040526;28;20304;-56
2023/06/08 01:55:49;;;;;;;18.92;11.63;;;;;;;11.46;100.00;101782.81;1048067;28;20297;-55
2023/06/08 01:56:21;;;;;;;25.08;12.65;;;;;;;11.43;100.00;101785.88;1043998;28;20531;-54
2023/06/08 01:56:53;;;;;;;17.88;11.35;;;;;;;11.45;100.00;101786.50;1045438;28;20298;-56
2023/06/08 01:57:25;;;;;;;18.33;11.43;;;;;;;11.45;100.00;101783.00;1044302;28;20302;-46
2023/06/08 01:57:57;;;;;;;20.30;11.27;;;;;;;11.46;100.00;101787.31;1044687;28;20306;-56
2023/06/08 01:58:28;;;;;;;18.02;12.15;;;;;;;11.50;100.00;101791.22;1043623;28;20421;-55
2023/06/08 01:59:00;;;;;;;19.35;12.02;;;;;;;11.46;100.00;101782.81;1040108;28;20304;-56
2023/06/08 01:59:32;;;;;;;14.63;11.68;;;;;;;11.51;100.00;101784.09;1043860;28;20310;-55
2023/06/08 02:00:08;;;;;;;20.27;11.38;;;;;;;11.44;100.00;101784.84;1039856;28;20315;-55
2023/06/08 02:00:43;;;;;;;22.33;12.00;;;;;;;11.46;100.00;101781.97;1037394;28;20292;-56
2023/06/08 02:01:14;;;;;;;16.77;11.45;;;;;;;11.48;100.00;101787.94;1041313;28;20793;-55
2023/06/08 02:01:46;;;;;;;16.30;11.73;;;;;;;11.50;100.00;101790.41;1044750;28;20716;-55
2023/06/08 02:02:18;;;;;;;20.77;12.27;;;;;;;11.53;100.00;101790.03;1045194;28;20287;-56
2023/06/08 02:02:50;;;;;;;15.77;10.73;;;;;;;11.54;100.00;101789.00;1048051;28;20429;-56
2023/06/08 02:03:23;;;;;;;19.85;11.98;;;;;;;11.53;100.00;101790.88;1048121;28;20653;-56
2023/06/08 02:03:54;;;;;;;22.35;12.70;;;;;;;11.50;100.00;101790.41;1048060;28;20298;-56
2023/06/08 02:04:26;;;;;;;21.80;12.27;;;;;;;11.53;100.00;101788.19;1048629;28;20634;-55
2023/06/08 02:04:58;;;;;;;18.60;11.15;;;;;;;11.54;100.00;101786.34;1047855;28;20396;-55
2023/06/08 02:05:29;;;;;;;21.00;12.95;;;;;;;11.54;100.00;101784.50;1047898;28;20301;-56
2023/06/08 02:06:03;;;;;;;20.13;11.27;;;;;;;11.48;100.00;101787.13;1043560;28;20365;-55
2023/06/08 02:06:37;;;;;;;16.45;11.07;;;;;;;11.47;100.00;101786.31;1033035;28;20324;-55
2023/06/08 02:07:09;;;;;;;19.30;11.20;;;;;;;11.52;100.00;101791.88;1036264;28;20674;-55
2023/06/08 02:07:41;;;;;;;19.25;10.75;;;;;;;11.58;100.00;101780.41;1036015;28;20305;-56
2023/06/08 02:08:14;;;;;;;19.88;12.32;;;;;;;11.59;100.00;101791.91;1040676;28;20300;-55
2023/06/08 02:08:46;;;;;;;17.50;11.82;;;;;;;11.56;100.00;101787.78;1043446;28;20291;-56
2023/06/08 02:09:18;;;;;;;16.63;11.35;;;;;;;11.46;100.00;101782.81;1043655;28;20891;-56
2023/06/08 02:09:49;;;;;;;24.38;13.15;;;;;;;11.50;100.00;101785.91;1043842;28;20295;-55
2023/06/08 02:10:23;;;;;;;26.10;12.18;;;;;;;11.44;100.00;101784.84;1043626;28;20303;-56
2023/06/08 02:10:54;;;;;;;18.08;12.35;;;;;;;11.43;100.00;101783.22;1043656;28;20333;-55
2023/06/08 02:11:26;;;;;;;19.02;11.40;;;;;;;11.40;100.00;101794.28;1043384;28;20295;-55
2023/06/08 02:12:07;;;;;;;22.38;11.95;;;;;;;11.34;100.00;101783.59;1043213;28;20306;-56
2023/06/08 02:12:39;;;;;;;18.92;11.57;;;;;;;11.36;100.00;101781.53;1043794;28;20473;-56
2023/06/08 02:13:11;;;;;;;19.35;11.57;;;;;;;11.33;100.00;101787.28;1043438;28;20368;-55
2023/06/08 02:13:43;;;;;;;20.58;11.20;;;;;;;11.39;100.00;101797.16;1043468;28;20319;-55
2023/06/08 02:14:15;;;;;;;17.80;11.82;;;;;;;11.46;100.00;101790.81;1039751;28;20729;-55
2023/06/08 02:14:47;;;;;;;20.60;10.73;;;;;;;11.44;100.00;101789.38;1039273;28;20311;-55
2023/06/08 02:15:20;;;;;;;14.55;11.25;;;;;;;11.42;100.00;101789.56;1039413;28;20311;-56
2023/06/08 02:15:52;;;;;;;21.17;11.77;;;;;;;11.40;100.00;101794.28;1040450;28;20346;-55
2023/06/08 02:16:24;;;;;;;19.23;12.57;;;;;;;11.38;100.00;101790.16;1041169;28;20304;-55
2023/06/08 02:16:56;;;;;;;16.08;11.68;;;;;;;11.38;100.00;101785.66;1043470;28;20781;-54
2023/06/08 02:17:33;;;;;;;21.02;12.80;;;;;;;11.40;100.00;101788.94;1043442;28;20709;-57
2023/06/08 02:18:05;;;;;;;18.70;11.23;;;;;;;11.45;100.00;101789.16;1044827;28;20302;-56
2023/06/08 02:18:40;;;;;;;29.48;13.85;;;;;;;11.46;100.00;101782.81;1044126;28;20314;-56
2023/06/08 02:19:16;;;;;;;18.02;12.40;;;;;;;11.43;100.00;101788.53;1044671;28;20291;-47
2023/06/08 02:19:48;;;;;;;24.10;12.07;;;;;;;11.52;100.00;101786.56;1044815;28;20298;-46
2023/06/08 02:20:22;;;;;;;22.13;13.38;;;;;;;11.51;100.00;101784.09;1044554;28;20805;-44
2023/06/08 02:20:53;;;;;;;21.52;12.00;;;;;;;11.48;100.00;101784.44;1043875;28;20374;-51
2023/06/08 02:21:25;;;;;;;18.02;11.73;;;;;;;11.54;100.00;101781.00;1044926;28;20350;-46
2023/06/08 02:21:58;;;;;;;21.35;12.43;;;;;;;11.56;100.00;101786.97;1044571;28;20303;-45
2023/06/08 02:22:29;;;;;;;17.27;12.75;;;;;;;11.53;100.00;101787.38;1043960;28;20295;-47
2023/06/08 02:23:01;;;;;;;15.80;12.20;;;;;;;11.54;100.00;101783.69;1043978;28;20291;-45
2023/06/08 02:23:32;;;;;;;22.98;11.63;;;;;;;11.49;100.00;101778.91;1044259;28;20302;-46
2023/06/08 02:24:06;;;;;;;19.83;12.20;;;;;;;11.52;100.00;101775.88;1044315;28;20303;-45
2023/06/08 02:24:38;;;;;;;15.80;11.65;;;;;;;11.52;100.00;101781.22;1043774;28;20437;-45
2023/06/08 02:25:10;;;;;;;20.52;12.77;;;;;;;11.57;100.00;101783.28;1039720;28;20299;-44
2023/06/08 02:25:42;;;;;;;24.65;13.45;;;;;;;11.52;100.00;101785.72;1039564;28;20300;-44
2023/06/08 02:26:16;;;;;;;27.52;12.48;;;;;;;11.51;100.00;101781.41;1035817;28;20715;-46
2023/06/08 02:26:54;;;;;;;23.73;12.20;;;;;;;11.52;100.00;101788.41;1040051;28;20884;-46
2023/06/08 02:27:27;;;;;;;23.30;12.70;;;;;;;11.53;100.00;101788.19;1039350;28;20717;-47
2023/06/08 02:28:00;;;;;;;20.17;12.20;;;;;;;11.49;100.00;101780.75;1036986;28;20374;-45
2023/06/08 02:28:32;;;;;;;21.30;12.05;;;;;;;11.54;100.00;101783.69;1035777;28;20307;-46
2023/06/08 02:29:03;;;;;;;19.13;13.18;;;;;;;11.57;100.00;101784.09;1036293;28;20300;-44
2023/06/08 02:29:35;;;;;;;19.15;12.63;;;;;;;11.52;100.00;101786.56;1040323;28;20806;-45
2023/06/08 02:30:08;;;;;;;14.52;11.13;;;;;;;11.53;100.00;101782.03;1040219;28;20371;-46
2023/06/08 02:30:41;;;;;;;21.48;12.25;;;;;;;11.50;100.00;101782.41;1043898;28;20310;-48
2023/06/08 02:31:13;;;;;;;21.50;12.00;;;;;;;11.55;100.00;101788.00;1044535;28;20346;-56
2023/06/08 02:31:46;;;;;;;23.42;12.77;;;;;;;11.56;100.00;101784.31;1044282;28;20370;-47
2023/06/08 02:32:17;;;;;;;15.65;12.30;;;;;;;11.57;100.00;101783.28;1040177;28;20304;-45
2023/06/08 02:32:49;;;;;;;20.85;12.15;;;;;;;11.58;100.00;101782.25;1044014;28;20703;-47
2023/06/08 02:33:21;;;;;;;23.55;13.18;;;;;;;11.56;100.00;101786.97;1043870;28;20302;-45
2023/06/08 02:33:59;;;;;;;20.70;11.50;;;;;;;11.58;100.00;101784.94;1040934;28;20300;-50
2023/06/08 02:34:31;;;;;;;23.55;13.40;;;;;;;11.56;100.00;101781.63;1044429;28;20288;-56